createdAt,value
2022-11-15T00:00:43.526Z,6.00
2022-11-15T00:03:29.408Z,6.20
2022-11-15T00:06:14.944Z,6.20
2022-11-15T00:09:01.721Z,6.20
2022-11-15T00:11:46.920Z,6.10
2022-11-15T00:14:32.306Z,6.10
2022-11-15T00:17:17.865Z,6.20
2022-11-15T00:20:03.792Z,6.30
2022-11-15T00:22:49.290Z,6.40
2022-11-15T00:25:35.117Z,6.40
2022-11-15T00:28:20.190Z,6.50
2022-11-15T00:31:07.779Z,6.50
2022-11-15T00:33:53.094Z,6.50
2022-11-15T00:36:38.474Z,6.50
2022-11-15T00:39:26.403Z,6.60
2022-11-15T00:42:11.908Z,6.70
2022-11-15T00:44:57.445Z,6.80
2022-11-15T00:47:46.435Z,6.90
2022-11-15T00:50:31.577Z,6.80
2022-11-15T00:53:18.125Z,6.90
2022-11-15T00:56:03.817Z,6.80
2022-11-15T00:58:49.231Z,6.70
2022-11-15T01:01:34.736Z,6.70
2022-11-15T01:04:20.238Z,6.70
2022-11-15T01:07:05.771Z,6.70
2022-11-15T01:09:51.252Z,6.70
2022-11-15T01:12:36.546Z,6.70
2022-11-15T01:15:22.020Z,6.80
2022-11-15T01:18:07.407Z,6.80
2022-11-15T01:20:52.960Z,6.70
2022-11-15T01:23:39.233Z,6.70
2022-11-15T01:26:25.702Z,6.80
2022-11-15T01:29:10.907Z,6.80
2022-11-15T01:32:01.675Z,6.70
2022-11-15T01:34:47.073Z,6.70
2022-11-15T01:37:32.600Z,6.70
2022-11-15T01:40:18.184Z,6.80
2022-11-15T01:43:21.619Z,6.90
2022-11-15T01:46:20.424Z,6.90
2022-11-15T01:49:20.587Z,6.80
2022-11-15T01:52:10.253Z,7.00
2022-11-15T01:55:23.796Z,6.90
2022-11-15T01:58:09.031Z,7.00
2022-11-15T02:00:54.683Z,7.10
2022-11-15T02:03:58.248Z,7.10
2022-11-15T02:06:44.950Z,7.10
2022-11-15T02:09:31.271Z,7.00
2022-11-15T02:12:20.500Z,7.10
2022-11-15T02:15:07.246Z,7.10
2022-11-15T02:18:00.352Z,7.10
2022-11-15T02:21:14.738Z,7.20
2022-11-15T02:24:48.051Z,7.10
2022-11-15T02:27:47.805Z,7.00
2022-11-15T02:30:45.700Z,7.00
2022-11-15T02:33:56.187Z,7.00
2022-11-15T02:37:07.955Z,7.00
2022-11-15T02:40:07.122Z,7.10
2022-11-15T02:43:19.775Z,7.20
2022-11-15T02:46:11.818Z,7.20
2022-11-15T02:48:57.529Z,7.20
2022-11-15T02:51:45.516Z,7.20
2022-11-15T02:54:33.226Z,7.20
2022-11-15T02:57:24.365Z,7.20
2022-11-15T03:00:17.992Z,7.20
2022-11-15T03:03:17.719Z,7.10
2022-11-15T03:06:21.092Z,7.10
2022-11-15T03:09:43.531Z,7.00
2022-11-15T03:12:37.693Z,7.10
2022-11-15T03:15:30.593Z,7.00
2022-11-15T03:18:22.413Z,7.10
2022-11-15T03:21:10.440Z,7.10
2022-11-15T03:23:57.996Z,7.10
2022-11-15T03:26:47.847Z,7.10
2022-11-15T03:29:47.669Z,7.10
2022-11-15T03:32:38.489Z,7.10
2022-11-15T03:35:31.157Z,7.10
2022-11-15T03:38:26.020Z,7.10
2022-11-15T03:41:28.624Z,7.10
2022-11-15T03:44:22.777Z,7.20
2022-11-15T03:47:18.355Z,7.30
2022-11-15T03:51:59.690Z,7.20
2022-11-15T03:54:56.721Z,7.30
2022-11-15T03:57:42.087Z,7.40
2022-11-15T04:00:28.941Z,7.40
2022-11-15T04:03:13.993Z,7.40
2022-11-15T04:05:59.435Z,7.40
2022-11-15T04:08:44.940Z,7.50
2022-11-15T04:11:30.425Z,7.50
2022-11-15T04:14:15.858Z,7.50
2022-11-15T04:17:01.335Z,7.50
2022-11-15T04:20:05.211Z,7.50
2022-11-15T04:23:12.094Z,7.50
2022-11-15T04:26:00.938Z,7.60
2022-11-15T04:29:05.457Z,7.90
2022-11-15T04:31:50.850Z,8.20
2022-11-15T04:34:36.393Z,8.30
2022-11-15T04:37:21.507Z,8.30
2022-11-15T04:40:07.722Z,8.30
2022-11-15T04:42:53.147Z,8.20
2022-11-15T04:45:38.587Z,8.20
2022-11-15T04:48:24.105Z,8.30
2022-11-15T04:51:09.475Z,8.40
2022-11-15T04:53:54.952Z,8.30
2022-11-15T04:56:40.290Z,8.30
2022-11-15T04:59:25.782Z,8.40
2022-11-15T05:02:11.211Z,8.50
2022-11-15T05:04:56.673Z,8.50
2022-11-15T05:07:42.201Z,8.70
2022-11-15T05:10:27.646Z,9.00
2022-11-15T05:13:12.996Z,9.20
2022-11-15T05:15:58.406Z,9.40
2022-11-15T05:18:50.164Z,9.50
2022-11-15T05:21:36.303Z,9.60
2022-11-15T05:24:21.355Z,9.60
2022-11-15T05:27:06.742Z,9.60
2022-11-15T05:29:52.051Z,9.60
2022-11-15T05:32:37.690Z,9.60
2022-11-15T05:35:40.644Z,9.40
2022-11-15T05:38:26.695Z,9.40
2022-11-15T05:41:12.768Z,9.40
2022-11-15T05:44:01.370Z,9.40
2022-11-15T05:46:47.978Z,9.30
2022-11-15T05:49:36.494Z,9.40
2022-11-15T05:52:26.357Z,9.30
2022-11-15T05:55:11.783Z,9.20
2022-11-15T05:57:57.368Z,9.00
2022-11-15T06:00:44.164Z,9.00
2022-11-15T06:03:30.360Z,8.90
2022-11-15T06:06:16.600Z,8.70
2022-11-15T06:09:02.236Z,8.70
2022-11-15T06:11:53.062Z,8.80
2022-11-15T06:14:38.619Z,8.80
2022-11-15T06:17:23.950Z,8.80
2022-11-15T06:20:09.986Z,8.70
2022-11-15T06:23:04.432Z,8.90
2022-11-15T06:25:49.980Z,9.00
2022-11-15T06:28:35.632Z,8.80
2022-11-15T06:31:20.919Z,8.80
2022-11-15T06:34:06.262Z,8.70
2022-11-15T06:36:51.666Z,8.80
2022-11-15T06:39:37.150Z,8.80
2022-11-15T06:42:22.617Z,8.80
2022-11-15T06:45:08.561Z,8.70
2022-11-15T06:47:54.335Z,8.60
2022-11-15T06:50:39.504Z,8.70
2022-11-15T06:53:25.469Z,8.70
2022-11-15T06:56:10.993Z,8.70
2022-11-15T06:58:56.678Z,8.70
2022-11-15T07:01:41.946Z,8.70
2022-11-15T07:04:27.402Z,8.80
2022-11-15T07:07:15.073Z,8.90
2022-11-15T07:10:00.448Z,8.80
2022-11-15T07:12:49.503Z,8.70
2022-11-15T07:15:34.991Z,8.70
2022-11-15T07:18:20.643Z,8.80
2022-11-15T07:21:07.591Z,8.80
2022-11-15T07:23:53.004Z,8.80
2022-11-15T07:26:38.402Z,8.90
2022-11-15T07:29:23.693Z,8.90
2022-11-15T07:32:10.337Z,8.80
2022-11-15T07:34:55.690Z,8.80
2022-11-15T07:37:41.110Z,8.90
2022-11-15T07:40:28.230Z,8.90
2022-11-15T07:43:13.588Z,8.90
2022-11-15T07:45:59.711Z,9.00
2022-11-15T07:48:45.767Z,9.00
2022-11-15T07:51:31.274Z,8.90
2022-11-15T07:54:16.764Z,8.90
2022-11-15T07:57:06.907Z,9.00
2022-11-15T07:59:52.495Z,9.00
2022-11-15T08:02:38.197Z,9.10
2022-11-15T08:05:23.524Z,9.10
2022-11-15T08:08:10.838Z,9.10
2022-11-15T08:10:58.024Z,9.10
2022-11-15T08:13:43.367Z,9.20
2022-11-15T08:16:28.882Z,9.20
2022-11-15T08:19:14.291Z,9.20
2022-11-15T08:21:59.627Z,9.20
2022-11-15T08:24:45.569Z,9.30
2022-11-15T08:27:30.886Z,9.30
2022-11-15T08:30:16.985Z,9.40
2022-11-15T08:33:02.384Z,9.40
2022-11-15T08:35:47.845Z,9.30
2022-11-15T08:38:33.660Z,9.30
2022-11-15T08:41:32.203Z,9.40
2022-11-15T08:44:17.399Z,9.60
2022-11-15T08:47:02.717Z,9.60
2022-11-15T08:49:48.095Z,9.70
2022-11-15T08:52:34.351Z,9.70
2022-11-15T08:55:20.911Z,9.80
2022-11-15T08:58:09.990Z,9.80
2022-11-15T09:00:56.878Z,9.80
2022-11-15T09:03:42.373Z,9.80
2022-11-15T09:06:28.193Z,9.70
2022-11-15T09:09:13.820Z,9.80
2022-11-15T09:12:02.433Z,9.80
2022-11-15T09:14:47.912Z,9.80
2022-11-15T09:17:33.295Z,10.00
2022-11-15T09:20:18.744Z,10.10
2022-11-15T09:23:05.777Z,10.20
2022-11-15T09:25:50.933Z,10.40
2022-11-15T09:28:37.777Z,10.50
2022-11-15T09:31:23.429Z,10.50
2022-11-15T09:34:08.797Z,10.40
2022-11-15T09:36:54.320Z,10.30
2022-11-15T09:39:39.655Z,10.40
2022-11-15T09:42:36.924Z,10.40
2022-11-15T09:45:29.600Z,10.40
2022-11-15T09:48:17.697Z,10.30
2022-11-15T09:51:19.809Z,10.50
2022-11-15T09:54:45.636Z,10.60
2022-11-15T09:56:44.725Z,10.70
2022-11-15T09:59:35.848Z,10.80
2022-11-15T10:02:26.888Z,10.90
2022-11-15T10:04:54.921Z,10.90
2022-11-15T10:07:32.318Z,10.90
2022-11-15T10:10:16.694Z,11.10
2022-11-15T10:12:48.977Z,11.20
2022-11-15T10:15:17.887Z,11.30
2022-11-15T10:18:00.347Z,11.40
2022-11-15T10:20:36.796Z,11.50
2022-11-15T10:23:11.164Z,11.50
2022-11-15T10:25:39.283Z,11.50
2022-11-15T10:28:18.191Z,11.60
2022-11-15T10:30:48.755Z,11.80
2022-11-15T10:33:35.877Z,11.80
2022-11-15T10:36:21.216Z,11.90
2022-11-15T10:38:50.951Z,11.90
2022-11-15T10:41:31.251Z,12.00
2022-11-15T10:44:21.636Z,12.00
2022-11-15T10:46:55.881Z,11.90
2022-11-15T10:49:25.137Z,12.00
2022-11-15T10:52:13.659Z,12.00
2022-11-15T10:54:45.014Z,12.10
2022-11-15T10:57:18.609Z,12.20
2022-11-15T10:59:53.249Z,12.30
2022-11-15T11:02:42.931Z,12.30
2022-11-15T11:05:37.867Z,12.20
2022-11-15T11:08:10.900Z,12.30
2022-11-15T11:11:01.461Z,12.30
2022-11-15T11:13:35.963Z,12.50
2022-11-15T11:16:14.770Z,12.50
2022-11-15T11:18:53.193Z,12.50
2022-11-15T11:21:56.160Z,12.60
2022-11-15T11:24:54.409Z,12.70
2022-11-15T11:27:44.664Z,12.70
2022-11-15T11:30:18.666Z,12.70
2022-11-15T11:32:55.000Z,12.70
2022-11-15T11:35:52.852Z,12.60
2022-11-15T11:38:39.165Z,12.70
2022-11-15T11:41:15.755Z,12.70
2022-11-15T11:44:08.007Z,12.60
2022-11-15T11:46:53.535Z,12.60
2022-11-15T11:49:31.012Z,12.60
2022-11-15T11:52:11.144Z,12.50
2022-11-15T11:55:07.088Z,12.40
2022-11-15T11:57:49.354Z,12.40
2022-11-15T12:00:20.865Z,12.30
2022-11-15T12:03:10.537Z,12.30
2022-11-15T12:05:50.917Z,12.30
2022-11-15T12:08:26.646Z,12.40
2022-11-15T12:11:14.658Z,12.40
2022-11-15T12:13:43.093Z,12.40
2022-11-15T12:16:33.208Z,12.40
2022-11-15T12:19:05.594Z,12.50
2022-11-15T12:22:03.268Z,12.50
2022-11-15T12:24:44.277Z,12.50
2022-11-15T12:27:20.643Z,12.60
2022-11-15T12:29:56.764Z,12.50
2022-11-15T12:32:32.015Z,12.60
2022-11-15T12:35:00.096Z,12.70
2022-11-15T12:37:34.098Z,12.70
2022-11-15T12:40:23.495Z,12.80
2022-11-15T12:43:22.068Z,12.80
2022-11-15T12:45:49.054Z,12.70
2022-11-15T12:48:18.762Z,12.80
2022-11-15T12:50:51.361Z,12.80
2022-11-15T12:53:24.342Z,12.80
2022-11-15T12:56:18.342Z,12.80
2022-11-15T12:58:54.771Z,12.80
2022-11-15T13:01:33.389Z,12.70
2022-11-15T13:04:22.205Z,12.70
2022-11-15T13:07:04.215Z,12.50
2022-11-15T13:09:36.982Z,12.50
2022-11-15T13:12:35.245Z,12.50
2022-11-15T13:15:14.068Z,12.40
2022-11-15T13:17:51.366Z,12.50
2022-11-15T13:20:24.513Z,12.60
2022-11-15T13:23:09.786Z,12.70
2022-11-15T13:26:00.000Z,12.70
2022-11-15T13:28:55.697Z,12.70
2022-11-15T13:31:38.137Z,12.80
2022-11-15T13:34:50.129Z,12.70
2022-11-15T13:37:31.828Z,12.60
2022-11-15T13:40:16.958Z,12.40
2022-11-15T13:42:45.887Z,12.30
2022-11-15T13:45:16.333Z,12.40
2022-11-15T13:47:43.352Z,12.40
2022-11-15T13:50:14.522Z,12.40
2022-11-15T13:52:46.558Z,12.40
2022-11-15T13:55:19.867Z,12.40
2022-11-15T13:57:52.166Z,12.30
2022-11-15T14:00:44.223Z,12.20
2022-11-15T14:03:21.168Z,12.00
2022-11-15T14:06:07.598Z,11.80
2022-11-15T14:08:36.257Z,11.80
2022-11-15T14:11:21.072Z,11.70
2022-11-15T14:14:14.492Z,11.70
2022-11-15T14:16:47.097Z,11.80
2022-11-15T14:19:35.968Z,11.80
2022-11-15T14:22:34.633Z,11.90
2022-11-15T14:25:08.924Z,12.00
2022-11-15T14:27:36.002Z,11.80
2022-11-15T14:30:03.103Z,11.80
2022-11-15T14:32:45.159Z,11.80
2022-11-15T14:35:25.267Z,11.70
2022-11-15T14:37:54.623Z,11.70
2022-11-15T14:40:23.174Z,11.60
2022-11-15T14:42:50.785Z,11.60
2022-11-15T14:45:22.746Z,11.40
2022-11-15T14:47:49.545Z,11.40
2022-11-15T14:50:20.946Z,11.40
2022-11-15T14:52:49.221Z,11.40
2022-11-15T14:55:32.024Z,11.40
2022-11-15T14:57:59.823Z,11.40
2022-11-15T15:00:30.889Z,11.40
2022-11-15T15:03:01.425Z,11.40
2022-11-15T15:05:44.471Z,11.40
2022-11-15T15:08:11.739Z,11.30
2022-11-15T15:10:44.220Z,11.20
2022-11-15T15:13:21.687Z,11.20
2022-11-15T15:15:49.788Z,11.10
2022-11-15T15:18:17.209Z,11.10
2022-11-15T15:20:46.573Z,11.00
2022-11-15T15:23:18.830Z,11.00
2022-11-15T15:25:47.039Z,11.00
2022-11-15T15:28:14.398Z,11.00
2022-11-15T15:30:41.772Z,11.00
2022-11-15T15:33:08.610Z,11.00
2022-11-15T15:35:36.218Z,11.00
2022-11-15T15:38:03.806Z,11.00
2022-11-15T15:40:32.579Z,11.00
2022-11-15T15:42:59.847Z,11.00
2022-11-15T15:45:27.870Z,11.00
2022-11-15T15:47:54.731Z,11.00
2022-11-15T15:50:28.802Z,11.00
2022-11-15T15:52:57.870Z,10.90
2022-11-15T15:55:25.309Z,10.90
2022-11-15T15:57:52.390Z,10.80
2022-11-15T16:00:20.528Z,10.80
2022-11-15T16:02:47.488Z,10.80
2022-11-15T16:05:14.653Z,10.80
2022-11-15T16:07:44.074Z,10.80
2022-11-15T16:10:25.709Z,10.80
2022-11-15T16:12:53.731Z,10.80
2022-11-15T16:15:21.894Z,10.80
2022-11-15T16:17:52.314Z,10.70
2022-11-15T16:20:43.247Z,10.70
2022-11-15T16:23:14.790Z,10.70
2022-11-15T16:25:51.455Z,10.70
2022-11-15T16:28:27.413Z,10.70
2022-11-15T16:31:23.468Z,10.70
2022-11-15T16:33:50.634Z,10.70
2022-11-15T16:36:26.905Z,10.70
2022-11-15T16:38:56.474Z,10.70
2022-11-15T16:41:23.175Z,10.70
2022-11-15T16:43:50.069Z,10.70
2022-11-15T16:46:21.952Z,10.70
2022-11-15T16:48:49.582Z,10.70
2022-11-15T16:51:16.486Z,10.70
2022-11-15T16:53:43.812Z,10.70
2022-11-15T16:56:27.197Z,10.70
2022-11-15T16:58:55.366Z,10.70
2022-11-15T17:01:30.861Z,10.60
2022-11-15T17:03:57.981Z,10.60
2022-11-15T17:06:26.727Z,10.60
2022-11-15T17:08:54.363Z,10.70
2022-11-15T17:11:22.705Z,10.60
2022-11-15T17:13:49.666Z,10.70
2022-11-15T17:16:18.134Z,10.70
2022-11-15T17:18:45.681Z,10.60
2022-11-15T17:21:17.802Z,10.60
2022-11-15T17:23:45.432Z,10.60
2022-11-15T17:26:33.089Z,10.60
2022-11-15T17:29:04.484Z,10.60
2022-11-15T17:31:33.680Z,10.60
2022-11-15T17:34:04.661Z,10.60
2022-11-15T17:36:31.737Z,10.60
2022-11-15T17:38:59.923Z,10.60
2022-11-15T17:41:27.880Z,10.60
2022-11-15T17:43:57.895Z,10.60
2022-11-15T17:46:25.320Z,10.60
2022-11-15T17:48:52.109Z,10.70
2022-11-15T17:51:19.406Z,10.60
2022-11-15T17:53:48.430Z,10.60
2022-11-15T17:56:20.747Z,10.60
2022-11-15T17:59:11.228Z,10.50
2022-11-15T18:01:39.974Z,10.50
2022-11-15T18:04:09.133Z,10.40
2022-11-15T18:06:36.727Z,10.40
2022-11-15T18:09:04.824Z,10.40
2022-11-15T18:11:34.315Z,10.30
2022-11-15T18:14:03.477Z,10.30
2022-11-15T18:16:32.613Z,10.30
2022-11-15T18:18:59.732Z,10.30
2022-11-15T18:21:29.660Z,10.30
2022-11-15T18:24:00.449Z,10.40
2022-11-15T18:26:29.343Z,10.50
2022-11-15T18:29:02.132Z,10.40
2022-11-15T18:31:31.043Z,10.40
2022-11-15T18:34:01.119Z,10.40
2022-11-15T18:36:30.684Z,10.40
2022-11-15T18:38:59.899Z,10.50
2022-11-15T18:41:30.837Z,10.50
2022-11-15T18:44:04.299Z,10.50
2022-11-15T18:46:32.426Z,10.50
2022-11-15T18:49:01.395Z,10.40
2022-11-15T18:51:30.732Z,10.50
2022-11-15T18:54:00.350Z,10.50
2022-11-15T18:56:28.327Z,10.40
2022-11-15T18:58:57.999Z,10.40
2022-11-15T19:01:34.507Z,10.40
2022-11-15T19:04:07.872Z,10.30
2022-11-15T19:06:38.736Z,10.20
2022-11-15T19:09:07.224Z,10.30
2022-11-15T19:11:36.120Z,10.20
2022-11-15T19:14:04.183Z,10.20
2022-11-15T19:16:33.376Z,10.20
2022-11-15T19:19:06.373Z,10.20
2022-11-15T19:21:34.218Z,10.20
2022-11-15T19:24:01.561Z,10.20
2022-11-15T19:26:29.311Z,10.20
2022-11-15T19:28:59.340Z,10.20
2022-11-15T19:31:28.015Z,10.10
2022-11-15T19:33:55.819Z,10.00
2022-11-15T19:36:33.892Z,10.00
2022-11-15T19:39:05.522Z,9.90
2022-11-15T19:41:32.255Z,10.00
2022-11-15T19:43:59.056Z,9.90
2022-11-15T19:46:26.953Z,9.90
2022-11-15T19:48:54.331Z,9.90
2022-11-15T19:51:23.793Z,9.90
2022-11-15T19:53:54.155Z,10.00
2022-11-15T19:56:21.814Z,9.90
2022-11-15T19:58:56.040Z,10.00
2022-11-15T20:01:25.315Z,9.90
2022-11-15T20:03:57.783Z,9.90
2022-11-15T20:06:27.616Z,9.90
2022-11-15T20:08:54.767Z,9.90
2022-11-15T20:11:21.556Z,9.90
2022-11-15T20:13:48.459Z,10.00
2022-11-15T20:16:20.691Z,10.10
2022-11-15T20:18:51.585Z,10.00
2022-11-15T20:21:19.615Z,10.00
2022-11-15T20:23:47.743Z,10.00
2022-11-15T20:26:15.198Z,9.90
2022-11-15T20:28:42.130Z,9.90
2022-11-15T20:31:10.384Z,9.80
2022-11-15T20:33:37.314Z,9.70
2022-11-15T20:36:12.630Z,9.60
2022-11-15T20:38:39.633Z,9.60
2022-11-15T20:41:06.451Z,9.50
2022-11-15T20:43:33.379Z,9.50
2022-11-15T20:46:00.192Z,9.60
2022-11-15T20:48:27.243Z,9.70
2022-11-15T20:51:14.238Z,9.70
2022-11-15T20:53:42.935Z,9.70
2022-11-15T20:56:15.421Z,9.60
2022-11-15T20:58:43.360Z,9.60
2022-11-15T21:01:12.166Z,9.60
2022-11-15T21:03:39.019Z,9.50
2022-11-15T21:06:06.218Z,9.60
2022-11-15T21:08:53.394Z,9.60
2022-11-15T21:11:39.404Z,9.60
2022-11-15T21:14:09.641Z,9.40
2022-11-15T21:16:37.044Z,9.40
2022-11-15T21:19:03.807Z,9.40
2022-11-15T21:21:32.938Z,9.40
2022-11-15T21:23:59.620Z,9.40
2022-11-15T21:26:26.816Z,9.40
2022-11-15T21:28:53.507Z,9.40
2022-11-15T21:31:20.359Z,9.30
2022-11-15T21:33:47.022Z,9.30
2022-11-15T21:36:13.828Z,9.10
2022-11-15T21:38:40.742Z,9.10
2022-11-15T21:41:07.559Z,9.20
2022-11-15T21:43:34.333Z,9.00
2022-11-15T21:46:06.206Z,9.10
2022-11-15T21:48:35.186Z,9.00
2022-11-15T21:51:04.711Z,9.10
2022-11-15T21:53:32.118Z,9.00
2022-11-15T21:56:00.163Z,9.10
2022-11-15T21:58:27.797Z,9.10
2022-11-15T22:01:14.275Z,9.10
2022-11-15T22:03:42.085Z,9.00
2022-11-15T22:06:12.964Z,8.90
2022-11-15T22:08:43.297Z,8.80
2022-11-15T22:11:10.148Z,8.90
2022-11-15T22:13:37.085Z,8.90
2022-11-15T22:16:04.209Z,8.80
2022-11-15T22:18:31.126Z,8.70
2022-11-15T22:20:59.816Z,8.70
2022-11-15T22:23:28.789Z,8.80
2022-11-15T22:25:55.504Z,8.80
2022-11-15T22:28:23.105Z,8.80
2022-11-15T22:30:53.168Z,8.80
2022-11-15T22:33:22.415Z,8.80
2022-11-15T22:35:49.502Z,8.90
2022-11-15T22:38:16.450Z,9.00
2022-11-15T22:40:44.149Z,8.90
2022-11-15T22:43:13.357Z,8.90
2022-11-15T22:45:57.619Z,8.80
2022-11-15T22:48:30.549Z,8.90
2022-11-15T22:50:58.222Z,8.90
2022-11-15T22:53:25.898Z,8.90
2022-11-15T22:56:01.550Z,9.00
2022-11-15T22:58:29.938Z,8.90
2022-11-15T23:01:00.808Z,9.00
2022-11-15T23:03:28.570Z,8.90
2022-11-15T23:06:00.375Z,8.80
2022-11-15T23:08:27.110Z,8.90
2022-11-15T23:11:12.319Z,8.90
2022-11-15T23:13:39.038Z,9.00
2022-11-15T23:16:23.967Z,8.90
2022-11-15T23:18:58.886Z,8.90
2022-11-15T23:21:47.072Z,8.90
2022-11-15T23:24:14.934Z,8.90
2022-11-15T23:26:42.730Z,8.90
2022-11-15T23:29:11.669Z,8.90
2022-11-15T23:32:02.052Z,8.90
2022-11-15T23:34:31.093Z,9.10
2022-11-15T23:36:58.438Z,9.20
2022-11-15T23:39:25.210Z,9.10
2022-11-15T23:41:52.030Z,9.20
2022-11-15T23:44:18.758Z,9.20
2022-11-15T23:46:45.770Z,9.10
2022-11-15T23:49:12.578Z,9.10
2022-11-15T23:51:39.302Z,9.10
2022-11-15T23:54:06.875Z,9.20
2022-11-15T23:56:33.625Z,9.10
2022-11-15T23:59:00.577Z,9.10
